Terminal Aerodrome Forecast
Issued by NWS Wichita, KS

Home | Current Version | Previous Version | Graphics & Text | Print | Product List | Glossary On
Versions: 1 2 3 4 5 6 7 8 9 10 11 12 13 14 15
000
FTUS43 KICT 221730 AAC
TAFICT
TAF AMD
KICT 221730Z 2218/2318 18014G20KT P6SM SKC
     FM230200 16008KT P6SM FEW250
     FM230600 21006KT P6SM VCSH SCT200
     FM230700 36007KT P6SM VCSH BKN150
     FM231000 01011KT P6SM VCSH BKN080
     FM231200 02013KT P6SM BKN040
     FM231700 01017G25KT P6SM SCT150=

USA.gov is the U.S. government's official web portal to all federal, state and local government web resources and services.